Queen Sapphire — 9V7564 — position and weather

sailwx.info

Track history (hours):
 
Tides and Currents Weather Stations Pressure Air Temp Water Temp Dewpoint Dewpoint Depression Visibility Wind Speed Wind Dir Waves Ship Positions

Queen Sapphire

Last reported at 2014-Dec-12 13:12 UTC. Time now 2014-Dec-17 21:38 UTC.
Position N 06°11' E 003°16'.

Length 200 m; draft 8 m.

Type: Cargo ship. MMSI: 564254000.

Date/timePositionNaut miles runAvg speedWind from/ knotsBaromVisibWave heightAir tempDewpointWater temp
2014-Dec-12 13:12N 06°11' E 003°16'1218.2
2014-Dec-12 12:33N 06°19' E 003°24'7 6.7
2014-Dec-12 11:33N 06°26' E 003°22'2 0.9
2014-Dec-12 09:29N 06°26' E 003°20'0 0.0
2014-Dec-12 08:32N 06°26' E 003°20'0 0.0
2014-Dec-12 07:32N 06°26' E 003°20'0 0.0
2014-Dec-12 06:32N 06°26' E 003°20'0 0.0
2014-Dec-12 02:32N 06°26' E 003°20'0 0.0
2014-Dec-12 01:32N 06°26' E 003°20'0 0.0
2014-Dec-12 00:32N 06°26' E 003°20'0 0.0
2014-Dec-11 23:32N 06°26' E 003°20'0 0.0
2014-Dec-11 22:32N 06°26' E 003°20'0 0.0
2014-Dec-11 21:32N 06°26' E 003°20'0 0.0
2014-Dec-11 20:32N 06°26' E 003°20'0 0.0
2014-Dec-11 19:29N 06°26' E 003°20'0 0.0
2014-Dec-11 18:32N 06°26' E 003°20'0 0.0
2014-Dec-11 17:32N 06°26' E 003°20'0 0.0
2014-Dec-11 16:32N 06°26' E 003°20'0 0.0
2014-Dec-11 14:32N 06°26' E 003°20'0 0.0
2014-Dec-11 13:32N 06°26' E 003°20'0 0.0
2014-Dec-11 12:32N 06°26' E 003°20'0 0.0
2014-Dec-11 11:32N 06°26' E 003°20'0 0.0
2014-Dec-11 09:26N 06°26' E 003°20'0 0.0
2014-Dec-11 08:32N 06°26' E 003°20'0 0.0
2014-Dec-11 07:29N 06°26' E 003°20'0 0.0
2014-Dec-11 06:32N 06°26' E 003°20'0 0.0
2014-Dec-11 05:32N 06°26' E 003°20'0 0.0
2014-Dec-11 01:08N 06°26' E 003°20'0 0.0
2014-Dec-11 00:32N 06°26' E 003°20'0 0.0
2014-Dec-10 23:32N 06°26' E 003°20'0 0.0
2014-Dec-10 22:32N 06°26' E 003°20'0 0.0
2014-Dec-10 21:33N 06°26' E 003°20'11 5.0
2014-Dec-10 19:17N 06°16' E 003°26'1 1.1
2014-Dec-10 18:33N 06°17' E 003°26'  
Track history (hours):
 
Tides and Currents Weather Stations Pressure Air Temp Water Temp Dewpoint Dewpoint Depression Visibility Wind Speed Wind Dir Waves Ship Positions

Queen Sapphire

Last reported at 2014-Dec-12 13:12 UTC. Time now 2014-Dec-17 21:38 UTC.
Position N 06°11' E 003°16'.

Length 200 m; draft 8 m.

Type: Cargo ship. MMSI: 564254000.

Date/timePositionNaut miles runAvg speedWind from/ knotsBaromVisibWave heightAir tempDewpointWater temp
2014-Dec-12 13:12N 06°11' E 003°16'1218.2
2014-Dec-12 12:33N 06°19' E 003°24'7 6.7
2014-Dec-12 11:33N 06°26' E 003°22'2 0.9
2014-Dec-12 09:29N 06°26' E 003°20'0 0.0
2014-Dec-12 08:32N 06°26' E 003°20'0 0.0
2014-Dec-12 07:32N 06°26' E 003°20'0 0.0
2014-Dec-12 06:32N 06°26' E 003°20'0 0.0
2014-Dec-12 02:32N 06°26' E 003°20'0 0.0
2014-Dec-12 01:32N 06°26' E 003°20'0 0.0
2014-Dec-12 00:32N 06°26' E 003°20'0 0.0
2014-Dec-11 23:32N 06°26' E 003°20'0 0.0
2014-Dec-11 22:32N 06°26' E 003°20'0 0.0
2014-Dec-11 21:32N 06°26' E 003°20'0 0.0
2014-Dec-11 20:32N 06°26' E 003°20'0 0.0
2014-Dec-11 19:29N 06°26' E 003°20'0 0.0
2014-Dec-11 18:32N 06°26' E 003°20'0 0.0
2014-Dec-11 17:32N 06°26' E 003°20'0 0.0
2014-Dec-11 16:32N 06°26' E 003°20'0 0.0
2014-Dec-11 14:32N 06°26' E 003°20'0 0.0
2014-Dec-11 13:32N 06°26' E 003°20'0 0.0
2014-Dec-11 12:32N 06°26' E 003°20'0 0.0
2014-Dec-11 11:32N 06°26' E 003°20'0 0.0
2014-Dec-11 09:26N 06°26' E 003°20'0 0.0
2014-Dec-11 08:32N 06°26' E 003°20'0 0.0
2014-Dec-11 07:29N 06°26' E 003°20'0 0.0
2014-Dec-11 06:32N 06°26' E 003°20'0 0.0
2014-Dec-11 05:32N 06°26' E 003°20'0 0.0
2014-Dec-11 01:08N 06°26' E 003°20'0 0.0
2014-Dec-11 00:32N 06°26' E 003°20'0 0.0
2014-Dec-10 23:32N 06°26' E 003°20'0 0.0
2014-Dec-10 22:32N 06°26' E 003°20'0 0.0
2014-Dec-10 21:33N 06°26' E 003°20'11 5.0
2014-Dec-10 19:17N 06°16' E 003°26'1 1.1
2014-Dec-10 18:33N 06°17' E 003°26'  

Dump ship's entire track history